createdAt,value
2022-11-27T00:04:27.366Z,11.90
2022-11-27T00:09:28.647Z,15.13
2022-11-27T00:14:30.104Z,12.93
2022-11-27T00:19:31.453Z,11.35
2022-11-27T00:24:32.734Z,12.90
2022-11-27T00:29:34.093Z,10.20
2022-11-27T00:34:35.482Z,11.32
2022-11-27T00:39:36.770Z,19.45
2022-11-27T00:44:40.710Z,13.32
2022-11-27T00:49:42.179Z,11.30
2022-11-27T00:54:43.547Z,10.73
2022-11-27T00:59:44.929Z,11.27
2022-11-27T01:04:47.034Z,12.70
2022-11-27T01:09:48.322Z,9.25
2022-11-27T01:14:49.685Z,8.80
2022-11-27T01:19:51.031Z,9.88
2022-11-27T01:24:52.333Z,6.60
2022-11-27T01:29:53.683Z,12.57
2022-11-27T01:34:55.068Z,11.63
2022-11-27T01:39:56.345Z,9.90
2022-11-27T01:44:57.670Z,12.38
2022-11-27T01:50:03.558Z,8.40
2022-11-27T01:55:11.096Z,13.23
2022-11-27T02:00:14.186Z,14.90
2022-11-27T02:05:18.058Z,8.65
2022-11-27T02:10:19.737Z,13.60
2022-11-27T02:15:21.330Z,8.10
2022-11-27T02:20:34.852Z,10.52
2022-11-27T02:26:14.513Z,13.40
2022-11-27T02:31:21.292Z,13.33
2022-11-27T02:36:26.520Z,4.30
2022-11-27T02:41:38.550Z,7.25
2022-11-27T02:46:41.159Z,6.35
2022-11-27T02:51:45.017Z,14.57
2022-11-27T02:56:48.190Z,6.95
2022-11-27T03:01:51.932Z,13.25
2022-11-27T03:06:56.168Z,5.70
2022-11-27T03:11:58.008Z,12.23
2022-11-27T03:17:18.257Z,15.57
2022-11-27T03:22:19.652Z,8.48
2022-11-27T03:27:27.400Z,8.35
2022-11-27T03:32:30.139Z,7.15
2022-11-27T03:37:31.449Z,8.68
2022-11-27T03:42:35.921Z,7.03
2022-11-27T03:47:53.568Z,14.15
2022-11-27T03:53:08.042Z,17.85
2022-11-27T03:58:11.767Z,10.05
2022-11-27T04:03:13.472Z,15.60
2022-11-27T04:08:14.762Z,8.93
2022-11-27T04:13:16.227Z,11.48
2022-11-27T04:18:17.749Z,11.63
2022-11-27T04:23:19.186Z,12.20
2022-11-27T04:28:20.460Z,11.30
2022-11-27T04:33:21.969Z,14.45
2022-11-27T04:38:24.521Z,14.88
2022-11-27T04:43:25.825Z,9.52
2022-11-27T04:48:27.617Z,14.73
2022-11-27T04:53:28.922Z,14.25
2022-11-27T04:58:30.282Z,12.45
2022-11-27T05:03:31.587Z,14.90
2022-11-27T05:08:33.520Z,10.23
2022-11-27T05:13:34.885Z,16.13
2022-11-27T05:18:36.218Z,11.80
2022-11-27T05:23:37.514Z,14.60
2022-11-27T05:28:38.801Z,19.40
2022-11-27T05:33:40.182Z,14.07
2022-11-27T05:38:41.701Z,11.38
2022-11-27T05:43:43.099Z,15.63
2022-11-27T05:48:44.381Z,18.02
2022-11-27T05:53:45.795Z,15.60
2022-11-27T05:58:48.159Z,10.70
2022-11-27T06:03:49.523Z,12.15
2022-11-27T06:08:50.927Z,12.02
2022-11-27T06:13:52.224Z,14.27
2022-11-27T06:18:54.466Z,9.95
2022-11-27T06:23:56.319Z,10.32
2022-11-27T06:28:58.540Z,14.13
2022-11-27T06:34:00.551Z,14.45
2022-11-27T06:39:02.229Z,15.13
2022-11-27T06:44:03.622Z,13.18
2022-11-27T06:49:04.924Z,11.23
2022-11-27T06:54:06.371Z,9.43
2022-11-27T06:59:07.811Z,11.75
2022-11-27T07:04:12.977Z,11.38
2022-11-27T07:09:14.287Z,9.85
2022-11-27T07:14:15.652Z,9.68
2022-11-27T07:19:16.975Z,11.90
2022-11-27T07:24:18.326Z,6.78
2022-11-27T07:29:19.614Z,5.75
2022-11-27T07:34:21.927Z,12.00
2022-11-27T07:39:39.699Z,10.68
2022-11-27T07:44:44.692Z,9.40
2022-11-27T07:49:45.969Z,6.43
2022-11-27T07:54:47.279Z,7.50
2022-11-27T07:59:48.577Z,9.65
2022-11-27T08:04:49.945Z,8.20
2022-11-27T08:09:51.270Z,8.13
2022-11-27T08:14:52.701Z,9.57
2022-11-27T08:19:54.005Z,7.63
2022-11-27T08:24:55.370Z,4.90
2022-11-27T08:29:56.890Z,8.35
2022-11-27T08:34:58.237Z,11.48
2022-11-27T08:39:59.552Z,6.70
2022-11-27T08:45:00.843Z,11.65
2022-11-27T08:50:02.267Z,5.22
2022-11-27T08:55:03.718Z,6.50
2022-11-27T09:00:05.538Z,4.38
2022-11-27T09:05:07.077Z,9.52
2022-11-27T09:10:08.907Z,6.40
2022-11-27T09:15:13.835Z,9.15
2022-11-27T09:20:15.949Z,7.13
2022-11-27T09:25:17.330Z,7.72
2022-11-27T09:30:18.691Z,7.75
2022-11-27T09:35:20.457Z,6.28
2022-11-27T09:40:21.878Z,6.53
2022-11-27T09:45:23.963Z,7.30
2022-11-27T09:50:34.702Z,8.02
2022-11-27T09:55:42.764Z,5.15
2022-11-27T10:00:44.580Z,5.75
2022-11-27T10:05:49.686Z,6.57
2022-11-27T10:10:53.808Z,4.40
2022-11-27T10:16:02.895Z,5.03
2022-11-27T10:21:19.543Z,6.85
2022-11-27T10:26:27.925Z,7.05
2022-11-27T10:31:37.349Z,6.80
2022-11-27T10:41:51.110Z,9.38
2022-11-27T10:46:54.125Z,11.60
2022-11-27T10:51:55.468Z,12.13
2022-11-27T10:57:11.731Z,6.57
2022-11-27T11:02:29.746Z,5.47
2022-11-27T11:07:31.093Z,6.88
2022-11-27T11:12:33.058Z,6.82
2022-11-27T11:17:34.670Z,7.20
2022-11-27T11:22:36.231Z,5.28
2022-11-27T11:27:42.396Z,7.18
2022-11-27T11:32:44.904Z,6.88
2022-11-27T11:37:46.467Z,7.20
2022-11-27T11:42:55.573Z,5.75
2022-11-27T11:48:23.360Z,6.38
2022-11-27T11:53:24.666Z,7.68
2022-11-27T11:58:35.595Z,5.80
2022-11-27T12:03:39.974Z,5.43
2022-11-27T12:08:44.260Z,12.38
2022-11-27T12:14:05.898Z,7.47
2022-11-27T12:19:10.162Z,6.65
2022-11-27T12:24:17.628Z,6.72
2022-11-27T12:29:37.829Z,7.88
2022-11-27T12:34:49.918Z,8.02
2022-11-27T12:39:57.209Z,6.00
2022-11-27T12:44:58.695Z,5.32
2022-11-27T12:50:07.615Z,5.43
2022-11-27T12:55:12.734Z,7.57
2022-11-27T13:00:19.098Z,6.63
2022-11-27T13:05:25.589Z,5.43
2022-11-27T13:10:26.887Z,7.03
2022-11-27T13:15:31.046Z,5.78
2022-11-27T13:20:38.468Z,7.40
2022-11-27T13:25:43.502Z,7.72
2022-11-27T13:30:44.955Z,6.38
2022-11-27T13:35:46.407Z,9.43
2022-11-27T13:40:48.832Z,5.43
2022-11-27T13:45:50.768Z,6.88
2022-11-27T13:50:54.032Z,5.05
2022-11-27T13:55:56.655Z,7.45
2022-11-27T14:00:58.059Z,7.93
2022-11-27T14:05:59.406Z,6.82
2022-11-27T14:11:03.427Z,5.07
2022-11-27T14:16:25.144Z,7.15
2022-11-27T14:21:26.504Z,6.35
2022-11-27T14:26:27.837Z,4.53
2022-11-27T14:31:31.025Z,4.30
2022-11-27T14:36:34.686Z,6.70
2022-11-27T14:41:36.010Z,6.70
2022-11-27T14:46:37.602Z,4.68
2022-11-27T14:51:39.766Z,5.90
2022-11-27T14:56:41.957Z,4.55
2022-11-27T15:01:43.689Z,5.45
2022-11-27T15:06:46.386Z,5.97
2022-11-27T15:11:56.488Z,8.55
2022-11-27T15:16:58.522Z,6.43
2022-11-27T15:21:59.928Z,4.82
2022-11-27T15:27:15.622Z,3.45
2022-11-27T15:32:23.393Z,7.05
2022-11-27T15:37:28.114Z,3.70
2022-11-27T15:42:30.155Z,4.07
2022-11-27T15:47:31.440Z,10.02
2022-11-27T15:52:33.294Z,3.90
2022-11-27T15:57:34.608Z,6.95
2022-11-27T16:02:36.532Z,6.65
2022-11-27T16:07:38.029Z,5.75
2022-11-27T16:12:39.655Z,4.30
2022-11-27T16:17:40.955Z,6.57
2022-11-27T16:22:42.254Z,5.57
2022-11-27T16:27:45.385Z,5.40
2022-11-27T16:32:46.797Z,4.88
2022-11-27T16:37:48.152Z,7.18
2022-11-27T16:42:49.547Z,6.57
2022-11-27T16:47:52.415Z,5.65
2022-11-27T16:52:55.338Z,5.10
2022-11-27T16:57:58.398Z,6.10
2022-11-27T17:02:59.757Z,5.40
2022-11-27T17:08:01.173Z,4.80
2022-11-27T17:13:02.630Z,4.88
2022-11-27T17:18:04.448Z,7.43
2022-11-27T17:23:05.742Z,6.57
2022-11-27T17:28:07.378Z,5.65
2022-11-27T17:33:08.871Z,4.78
2022-11-27T17:38:10.180Z,7.82
2022-11-27T17:43:11.470Z,7.47
2022-11-27T17:48:12.790Z,7.45
2022-11-27T17:53:14.097Z,7.10
2022-11-27T17:58:15.421Z,6.55
2022-11-27T18:03:16.760Z,6.63
2022-11-27T18:08:18.095Z,6.53
2022-11-27T18:13:19.404Z,7.32
2022-11-27T18:18:21.945Z,6.30
2022-11-27T18:23:23.278Z,6.97
2022-11-27T18:28:24.590Z,7.32
2022-11-27T18:33:25.904Z,4.07
2022-11-27T18:38:29.185Z,5.28
2022-11-27T18:43:31.080Z,5.85
2022-11-27T18:48:33.150Z,7.35
2022-11-27T18:53:34.491Z,5.80
2022-11-27T18:58:37.210Z,5.00
2022-11-27T19:03:42.866Z,10.23
2022-11-27T19:08:44.650Z,5.38
2022-11-27T19:13:46.030Z,4.78
2022-11-27T19:18:47.509Z,6.28
2022-11-27T19:23:49.673Z,7.78
2022-11-27T19:28:51.400Z,11.82
2022-11-27T19:33:53.344Z,9.27
2022-11-27T19:39:02.197Z,12.73
2022-11-27T19:44:05.542Z,6.43
2022-11-27T19:49:08.340Z,14.98
2022-11-27T19:54:11.210Z,8.38
2022-11-27T19:59:13.534Z,7.13
2022-11-27T20:04:15.706Z,10.60
2022-11-27T20:09:19.038Z,6.57
2022-11-27T20:14:20.787Z,6.70
2022-11-27T20:19:22.411Z,8.05
2022-11-27T20:24:24.382Z,5.68
2022-11-27T20:29:25.871Z,8.10
2022-11-27T20:34:28.417Z,5.82
2022-11-27T20:39:29.863Z,6.25
2022-11-27T20:44:31.196Z,7.32
2022-11-27T20:49:33.761Z,7.63
2022-11-27T20:54:35.074Z,6.15
2022-11-27T20:59:36.442Z,7.00
2022-11-27T21:04:37.965Z,6.95
2022-11-27T21:09:39.580Z,4.75
2022-11-27T21:14:43.434Z,4.85
2022-11-27T21:19:44.737Z,4.82
2022-11-27T21:24:49.346Z,8.15
2022-11-27T21:29:51.535Z,8.20
2022-11-27T21:34:52.916Z,7.53
2022-11-27T21:39:54.254Z,7.00
2022-11-27T21:44:55.547Z,11.65
2022-11-27T21:49:57.614Z,7.07
2022-11-27T21:54:58.918Z,9.02
2022-11-27T22:00:00.288Z,12.75
2022-11-27T22:05:01.602Z,9.13
2022-11-27T22:10:03.064Z,7.07
2022-11-27T22:15:04.535Z,4.88
2022-11-27T22:20:06.467Z,4.20
2022-11-27T22:25:07.984Z,4.30
2022-11-27T22:30:09.539Z,2.83
2022-11-27T22:35:10.853Z,5.82
2022-11-27T22:40:12.746Z,3.47
2022-11-27T22:45:14.090Z,5.70
2022-11-27T22:50:15.498Z,6.22
2022-11-27T22:55:17.278Z,5.50
2022-11-27T23:00:18.704Z,5.47
2022-11-27T23:05:20.428Z,4.90
2022-11-27T23:10:22.332Z,3.80
2022-11-27T23:15:23.676Z,6.30
2022-11-27T23:20:25.353Z,6.45
2022-11-27T23:25:28.273Z,4.25
2022-11-27T23:30:29.687Z,4.40
2022-11-27T23:35:31.022Z,6.20
2022-11-27T23:40:32.337Z,6.75
2022-11-27T23:45:33.653Z,5.25
2022-11-27T23:50:34.962Z,8.10
2022-11-27T23:55:36.501Z,4.60
